Time;durP1;ratioP1;P1;durP2;ratioP2;P2;SDS_P1;SDS_P2;PMS_P1;PMS_P2;Temp;Humidity;BMP_temperature;BMP_pressure;BME280_temperature;BME280_humidity;BME280_pressure;Samples;Min_cycle;Max_cycle;Signal;HPM_P1;HPM_P2
2023/03/20 00:01:29;;;;;;;0.50;0.50;;;7.40;99.90;;;;;;5056976;28;20226;-92
2023/03/20 00:03:56;;;;;;;1.23;0.80;;;7.50;99.90;;;;;;5054764;28;20214;-92
2023/03/20 00:06:24;;;;;;;0.70;0.70;;;7.40;99.90;;;;;;5054577;28;20225;-94
2023/03/20 00:08:52;;;;;;;2.07;1.23;;;7.50;99.90;;;;;;5057078;28;20239;-92
2023/03/20 00:11:35;;;;;;;0.60;0.60;;;7.60;99.90;;;;;;5054967;28;20293;-91
2023/03/20 00:14:13;;;;;;;1.97;1.50;;;7.60;99.90;;;;;;5055825;28;20558;-92
2023/03/20 00:16:42;;;;;;;1.60;1.20;;;7.60;99.90;;;;;;5053954;28;20239;-92
2023/03/20 00:19:16;;;;;;;2.17;1.97;;;7.60;99.90;;;;;;5080258;28;20529;-92
2023/03/20 00:21:44;;;;;;;1.53;1.43;;;7.70;99.90;;;;;;5055167;28;20209;-94
2023/03/20 00:24:10;;;;;;;2.03;1.93;;;7.70;99.90;;;;;;5054719;28;20670;-92
2023/03/20 00:26:37;;;;;;;1.23;0.93;;;7.70;99.90;;;;;;5045635;28;20273;-92
2023/03/20 00:29:04;;;;;;;2.00;1.17;;;7.70;99.90;;;;;;5039695;28;20217;-91
2023/03/20 00:31:38;;;;;;;2.47;2.27;;;7.70;99.90;;;;;;5055386;28;20233;-92
2023/03/20 00:34:09;;;;;;;3.63;1.50;;;7.80;99.90;;;;;;5037116;28;21098;-92
2023/03/20 00:36:34;;;;;;;0.70;0.70;;;7.80;99.90;;;;;;5053800;28;20663;-92
2023/03/20 00:39:00;;;;;;;1.70;0.90;;;7.80;99.90;;;;;;5029433;28;20217;-93
2023/03/20 00:41:38;;;;;;;6.87;1.90;;;7.80;99.90;;;;;;5053551;28;20238;-93
2023/03/20 00:44:39;;;;;;;2.83;1.20;;;7.70;99.90;;;;;;5054131;28;20324;-92
2023/03/20 00:47:20;;;;;;;1.40;0.60;;;7.70;99.90;;;;;;5055000;28;20209;-93
2023/03/20 00:49:49;;;;;;;1.00;1.00;;;7.80;99.90;;;;;;5051129;28;20578;-92
2023/03/20 00:52:17;;;;;;;22.53;1.20;;;7.80;99.90;;;;;;5053788;28;20218;-92
2023/03/20 00:54:42;;;;;;;0.70;0.70;;;7.90;99.90;;;;;;5043779;28;20210;-91
2023/03/20 00:57:19;;;;;;;3.80;1.23;;;7.90;99.90;;;;;;5054236;28;20649;-91
2023/03/20 00:59:52;;;;;;;1.90;0.80;;;7.90;99.90;;;;;;5054461;28;20185;-93
2023/03/20 01:02:20;;;;;;;1.17;1.07;;;8.00;99.90;;;;;;5050603;28;20186;-91
2023/03/20 01:04:47;;;;;;;2.53;2.17;;;8.00;99.90;;;;;;5055424;28;20222;-93
2023/03/20 01:07:14;;;;;;;2.07;1.50;;;8.10;99.90;;;;;;5030725;28;20217;-92
2023/03/20 01:09:40;;;;;;;1.63;1.17;;;8.10;99.90;;;;;;5054142;28;20685;-90
2023/03/20 01:12:06;;;;;;;1.20;1.10;;;8.10;99.90;;;;;;5051461;28;20960;-92
2023/03/20 01:14:33;;;;;;;1.03;1.03;;;8.10;99.90;;;;;;5040921;28;20193;-93
2023/03/20 01:16:58;;;;;;;1.60;1.50;;;8.10;99.90;;;;;;5056294;28;20239;-93
2023/03/20 01:19:24;;;;;;;7.33;1.40;;;8.10;99.90;;;;;;5056785;28;20230;-90
2023/03/20 01:21:50;;;;;;;1.20;1.10;;;8.10;99.90;;;;;;5053456;28;20218;-92
2023/03/20 01:24:16;;;;;;;1.77;1.47;;;8.10;99.90;;;;;;5039102;28;20209;-90
2023/03/20 01:26:44;;;;;;;1.47;1.37;;;8.10;99.90;;;;;;5047387;28;20510;-92
2023/03/20 01:29:20;;;;;;;2.73;2.40;;;8.10;99.90;;;;;;5058305;28;20288;-90
2023/03/20 01:31:46;;;;;;;2.07;1.53;;;8.10;99.90;;;;;;5057004;28;20210;-93
2023/03/20 01:34:12;;;;;;;0.93;0.93;;;8.10;99.90;;;;;;5056636;28;20221;-90
2023/03/20 01:36:38;;;;;;;2.93;1.27;;;8.10;99.90;;;;;;5047668;28;20225;-93
2023/03/20 01:39:05;;;;;;;1.60;1.50;;;8.20;99.90;;;;;;5058666;28;20466;-92
2023/03/20 01:41:31;;;;;;;0.67;0.67;;;8.20;99.90;;;;;;5042419;28;20234;-91
2023/03/20 01:43:57;;;;;;;2.60;1.07;;;8.20;99.90;;;;;;5039594;28;20634;-92
2023/03/20 01:46:24;;;;;;;2.00;1.40;;;8.20;99.90;;;;;;5055516;28;20553;-92
2023/03/20 01:48:50;;;;;;;2.43;1.73;;;8.20;99.90;;;;;;5062601;28;20717;-92
2023/03/20 01:51:28;;;;;;;10.23;1.63;;;8.20;99.90;;;;;;5062291;28;20263;-91
2023/03/20 01:54:23;;;;;;;3.90;1.70;;;8.20;99.90;;;;;;5044749;28;20271;-90
2023/03/20 01:56:51;;;;;;;0.90;0.87;;;8.20;99.90;;;;;;5062615;28;20215;-92
2023/03/20 01:59:22;;;;;;;0.67;0.63;;;8.20;99.90;;;;;;5054356;28;20849;-90
2023/03/20 02:01:48;;;;;;;8.07;1.30;;;8.20;99.90;;;;;;5050173;28;20252;-90
2023/03/20 02:04:15;;;;;;;1.97;1.67;;;8.20;99.90;;;;;;5042996;28;20209;-93
2023/03/20 02:06:43;;;;;;;9.47;1.63;;;8.20;99.90;;;;;;5057297;28;20209;-90
2023/03/20 02:09:10;;;;;;;1.57;0.97;;;8.20;99.90;;;;;;5046147;28;20271;-90
2023/03/20 02:11:39;;;;;;;7.03;1.40;;;8.20;99.90;;;;;;5054229;28;20201;-92
2023/03/20 02:14:05;;;;;;;1.97;1.30;;;8.20;99.90;;;;;;5054885;28;20194;-91
2023/03/20 02:16:31;;;;;;;3.13;2.27;;;8.30;99.90;;;;;;5053460;28;20218;-92
2023/03/20 02:18:57;;;;;;;1.33;1.23;;;8.20;99.90;;;;;;5041934;28;20411;-93
2023/03/20 02:21:38;;;;;;;5.87;2.50;;;8.20;99.90;;;;;;5058255;28;20371;-92
2023/03/20 02:24:16;;;;;;;6.73;2.70;;;8.20;99.90;;;;;;5057188;28;20213;-94
2023/03/20 02:26:57;;;;;;;23.43;2.83;;;8.20;99.90;;;;;;5057581;28;20647;-94
2023/03/20 02:29:35;;;;;;;1.77;1.67;;;8.20;99.90;;;;;;5058801;28;20213;-92
2023/03/20 02:32:32;;;;;;;4.43;1.07;;;8.20;99.90;;;;;;5057456;28;21020;-92
2023/03/20 02:35:10;;;;;;;6.27;3.27;;;8.20;99.90;;;;;;5064255;28;20675;-94
2023/03/20 02:37:39;;;;;;;3.63;1.83;;;8.20;99.90;;;;;;5063858;28;20229;-94
2023/03/20 02:40:16;;;;;;;6.60;2.57;;;8.20;99.90;;;;;;5058698;28;20639;-93
2023/03/20 02:43:14;;;;;;;4.10;3.10;;;8.30;99.90;;;;;;5056688;28;20324;-93
2023/03/20 02:46:04;;;;;;;2.07;1.63;;;8.20;99.90;;;;;;5063482;28;20687;-93
2023/03/20 02:48:36;;;;;;;1.43;1.30;;;8.20;99.90;;;;;;5057778;28;20326;-93
2023/03/20 02:51:14;;;;;;;3.80;1.90;;;8.20;99.90;;;;;;5063961;28;20691;-94
2023/03/20 02:53:58;;;;;;;2.77;1.60;;;8.20;99.90;;;;;;5064535;28;20170;-93
2023/03/20 02:56:45;;;;;;;2.87;1.50;;;8.20;99.90;;;;;;5056009;28;20181;-93
2023/03/20 02:59:32;;;;;;;0.97;0.80;;;8.30;99.90;;;;;;5048131;28;20509;-94
2023/03/20 03:02:08;;;;;;;2.40;1.83;;;8.20;99.90;;;;;;5056677;28;20578;-92
2023/03/20 03:04:50;;;;;;;1.10;0.77;;;8.30;99.90;;;;;;5055997;28;20299;-93
2023/03/20 03:07:20;;;;;;;4.67;2.63;;;8.30;99.90;;;;;;5058882;28;20244;-93
2023/03/20 03:09:54;;;;;;;2.43;2.17;;;8.30;99.90;;;;;;5056125;28;20583;-92
2023/03/20 03:12:32;;;;;;;1.90;1.80;;;8.30;99.90;;;;;;5080633;28;20225;-93
2023/03/20 03:15:06;;;;;;;3.17;2.97;;;8.30;99.90;;;;;;5054551;28;20213;-93
2023/03/20 03:17:34;;;;;;;2.77;2.57;;;8.30;99.90;;;;;;5054034;28;20181;-92
2023/03/20 03:20:06;;;;;;;3.20;2.37;;;8.30;99.90;;;;;;5057070;28;20185;-94
2023/03/20 03:22:33;;;;;;;1.80;1.70;;;8.30;99.90;;;;;;5055650;28;21037;-92
2023/03/20 03:24:59;;;;;;;3.97;2.37;;;8.30;99.90;;;;;;5025881;28;20225;-93
2023/03/20 03:27:40;;;;;;;3.67;2.97;;;8.30;99.90;;;;;;5039458;28;20256;-92
2023/03/20 03:30:28;;;;;;;1.90;1.73;;;8.30;99.90;;;;;;5051669;28;20853;-93
2023/03/20 03:33:29;;;;;;;1.80;1.23;;;8.30;99.90;;;;;;5057443;28;20463;-93
2023/03/20 03:36:10;;;;;;;7.33;2.60;;;8.30;99.90;;;;;;5055392;28;20573;-92
2023/03/20 03:38:53;;;;;;;1.37;1.27;;;8.30;99.90;;;;;;5053179;28;20475;-93
2023/03/20 03:41:27;;;;;;;2.17;1.40;;;8.30;99.90;;;;;;5056247;28;20622;-93
2023/03/20 03:44:25;;;;;;;2.90;2.77;;;8.30;99.90;;;;;;5058147;28;20234;-92
2023/03/20 03:47:18;;;;;;;6.07;2.93;;;8.30;99.90;;;;;;5020397;28;20233;-94
2023/03/20 03:49:50;;;;;;;3.87;1.63;;;8.30;99.90;;;;;;5060038;28;20265;-94
2023/03/20 03:52:21;;;;;;;3.37;2.47;;;8.30;99.90;;;;;;5064531;28;20209;-95
2023/03/20 03:54:58;;;;;;;3.03;2.30;;;8.30;99.90;;;;;;5064416;28;20213;-93
2023/03/20 03:57:41;;;;;;;2.50;2.10;;;8.30;99.90;;;;;;5059845;28;20213;-96
2023/03/20 04:00:10;;;;;;;5.47;1.50;;;8.30;99.90;;;;;;5068623;28;20401;-95
2023/03/20 04:02:37;;;;;;;2.73;1.80;;;8.30;99.90;;;;;;5065904;28;20181;-94
2023/03/20 04:05:06;;;;;;;2.73;1.80;;;8.30;99.90;;;;;;5059038;28;20197;-94
2023/03/20 04:07:32;;;;;;;4.80;2.30;;;8.30;99.90;;;;;;5063087;28;20217;-92
2023/03/20 04:09:58;;;;;;;4.10;3.10;;;8.30;99.90;;;;;;5061400;28;20290;-95
2023/03/20 04:12:31;;;;;;;2.00;1.67;;;8.30;99.90;;;;;;5061807;28;20223;-94
2023/03/20 04:14:57;;;;;;;4.97;1.37;;;8.30;99.90;;;;;;5067158;28;20237;-92
2023/03/20 04:17:23;;;;;;;2.30;2.10;;;8.30;99.90;;;;;;5057482;28;20229;-93
2023/03/20 04:19:48;;;;;;;3.43;2.57;;;8.30;99.90;;;;;;5056661;28;20224;-93
2023/03/20 04:22:14;;;;;;;3.70;2.63;;;8.30;99.90;;;;;;5041821;28;20259;-93
2023/03/20 04:24:40;;;;;;;6.33;3.30;;;8.30;99.90;;;;;;5040291;28;20206;-94
2023/03/20 04:27:06;;;;;;;1.63;1.40;;;8.30;99.90;;;;;;5059956;28;20217;-93
2023/03/20 04:29:32;;;;;;;17.17;2.20;;;8.30;99.90;;;;;;5056047;28;20311;-92
2023/03/20 04:31:58;;;;;;;1.93;1.83;;;8.30;99.90;;;;;;5056327;28;20186;-93
2023/03/20 04:34:24;;;;;;;10.03;4.20;;;8.30;99.90;;;;;;5054099;28;20271;-92
2023/03/20 04:36:50;;;;;;;3.27;3.07;;;8.30;99.90;;;;;;5045262;28;20726;-93
2023/03/20 04:39:16;;;;;;;3.60;3.30;;;8.30;99.90;;;;;;5059853;28;20217;-93
2023/03/20 04:41:41;;;;;;;3.87;3.47;;;8.30;99.90;;;;;;5060337;28;20571;-92
2023/03/20 04:44:07;;;;;;;22.00;3.33;;;8.30;99.90;;;;;;5058302;28;20178;-92
2023/03/20 04:46:33;;;;;;;2.13;1.77;;;8.30;99.90;;;;;;5049074;28;20939;-92
2023/03/20 04:48:59;;;;;;;6.40;3.33;;;8.30;99.90;;;;;;5026870;28;20320;-92
2023/03/20 04:51:25;;;;;;;11.20;3.53;;;8.30;99.90;;;;;;5059608;28;20725;-92
2023/03/20 04:53:51;;;;;;;6.00;3.07;;;8.30;99.90;;;;;;5043331;28;20554;-95
2023/03/20 04:56:16;;;;;;;7.13;3.53;;;8.30;99.90;;;;;;5043150;28;20189;-94
2023/03/20 04:58:42;;;;;;;4.97;4.47;;;8.30;99.90;;;;;;5052975;28;21088;-92
2023/03/20 05:01:08;;;;;;;5.47;4.80;;;8.30;99.90;;;;;;5060075;28;20224;-93
2023/03/20 05:03:36;;;;;;;9.00;5.10;;;8.30;99.90;;;;;;5051116;28;20253;-95
2023/03/20 05:06:02;;;;;;;6.03;4.37;;;8.30;99.90;;;;;;5050393;28;20264;-94
2023/03/20 05:08:28;;;;;;;3.53;2.87;;;8.30;99.90;;;;;;5061895;28;20308;-92
2023/03/20 05:10:54;;;;;;;3.73;3.03;;;8.20;99.90;;;;;;5042127;28;20315;-92
2023/03/20 05:13:19;;;;;;;8.63;2.80;;;8.20;99.90;;;;;;5058726;28;20229;-91
2023/03/20 05:15:45;;;;;;;4.27;3.87;;;8.30;99.90;;;;;;5058740;28;20264;-91
2023/03/20 05:18:14;;;;;;;3.27;2.97;;;8.20;99.90;;;;;;5058836;28;20630;-91
2023/03/20 05:20:40;;;;;;;5.63;3.67;;;8.20;99.90;;;;;;5067877;28;20182;-93
2023/03/20 05:23:09;;;;;;;3.37;3.07;;;8.20;99.90;;;;;;5059114;28;20187;-91
2023/03/20 05:25:34;;;;;;;5.40;3.47;;;8.20;99.90;;;;;;5058310;28;20220;-89
2023/03/20 05:28:00;;;;;;;5.03;3.27;;;8.30;99.90;;;;;;5058087;28;20225;-91
2023/03/20 05:30:26;;;;;;;6.40;4.33;;;8.20;99.90;;;;;;5057769;28;20711;-92
2023/03/20 05:32:52;;;;;;;4.73;2.63;;;8.30;99.90;;;;;;5039532;28;20230;-92
2023/03/20 05:35:18;;;;;;;6.40;3.60;;;8.20;99.90;;;;;;5041031;28;20654;-92
2023/03/20 05:37:44;;;;;;;3.97;2.77;;;8.20;99.90;;;;;;5055103;28;20225;-90
2023/03/20 05:40:15;;;;;;;10.67;3.43;;;8.20;99.90;;;;;;5048586;28;20742;-90
2023/03/20 05:42:41;;;;;;;9.27;3.77;;;8.20;99.90;;;;;;5057602;28;20620;-90
2023/03/20 05:45:07;;;;;;;2.57;2.37;;;8.20;99.90;;;;;;5058789;28;20221;-91
2023/03/20 05:47:33;;;;;;;4.40;4.03;;;8.20;99.90;;;;;;5056044;28;20198;-91
2023/03/20 05:49:59;;;;;;;4.77;3.30;;;8.10;99.90;;;;;;5037503;28;20184;-91
2023/03/20 05:52:25;;;;;;;2.47;2.13;;;8.10;99.90;;;;;;5074686;28;20249;-90
2023/03/20 05:54:51;;;;;;;3.87;3.37;;;8.10;99.90;;;;;;5056591;28;20240;-90
2023/03/20 05:57:17;;;;;;;4.83;2.23;;;8.10;99.90;;;;;;5056312;28;20440;-90
2023/03/20 05:59:43;;;;;;;3.97;3.20;;;8.10;99.90;;;;;;5041153;28;20193;-93
2023/03/20 06:02:09;;;;;;;4.70;3.83;;;8.10;99.90;;;;;;5048370;28;20255;-94
2023/03/20 06:04:38;;;;;;;4.13;3.53;;;8.10;99.90;;;;;;5040095;28;20256;-92
2023/03/20 06:07:04;;;;;;;3.23;3.00;;;8.10;99.90;;;;;;5041532;28;20241;-92
2023/03/20 06:09:30;;;;;;;7.93;3.13;;;8.20;99.90;;;;;;5057576;28;20257;-91
2023/03/20 06:11:56;;;;;;;4.23;2.63;;;8.10;99.90;;;;;;5038307;28;20456;-92
2023/03/20 06:14:22;;;;;;;2.63;2.43;;;8.20;99.90;;;;;;5057936;28;20197;-90
2023/03/20 06:16:47;;;;;;;9.93;4.77;;;8.20;99.90;;;;;;5046922;28;20214;-92
2023/03/20 06:19:13;;;;;;;10.63;5.80;;;8.20;99.90;;;;;;5058142;28;20218;-94
2023/03/20 06:21:39;;;;;;;7.00;4.80;;;8.20;99.90;;;;;;5058175;28;20265;-93
2023/03/20 06:24:05;;;;;;;10.40;5.40;;;8.20;99.90;;;;;;5058865;28;20209;-95
2023/03/20 06:26:31;;;;;;;16.70;7.47;;;8.30;99.90;;;;;;5047402;28;20178;-90
2023/03/20 06:28:56;;;;;;;12.13;6.90;;;8.30;99.90;;;;;;5042461;28;20208;-91
2023/03/20 06:31:22;;;;;;;4.40;3.60;;;8.30;99.90;;;;;;5057576;28;20232;-92
2023/03/20 06:33:48;;;;;;;9.07;5.13;;;8.20;99.90;;;;;;5040903;28;20254;-92
2023/03/20 06:36:14;;;;;;;10.37;7.73;;;8.30;99.90;;;;;;5048201;28;20225;-94
2023/03/20 06:38:40;;;;;;;10.53;4.27;;;8.30;99.90;;;;;;5048775;28;20248;-92
2023/03/20 06:41:06;;;;;;;6.80;5.97;;;8.40;99.90;;;;;;5041804;28;20189;-94
2023/03/20 06:43:31;;;;;;;6.60;6.00;;;8.40;99.90;;;;;;5060826;28;20582;-92
2023/03/20 06:45:57;;;;;;;17.20;4.97;;;8.40;99.90;;;;;;5066527;28;20255;-92
2023/03/20 06:48:23;;;;;;;5.53;3.53;;;8.50;99.90;;;;;;5061345;28;20250;-92
2023/03/20 06:50:50;;;;;;;7.20;4.77;;;8.40;99.90;;;;;;5056872;28;20189;-92
2023/03/20 06:53:16;;;;;;;5.13;3.80;;;8.50;99.90;;;;;;5064443;28;20219;-91
2023/03/20 06:55:45;;;;;;;4.43;4.03;;;8.50;99.90;;;;;;5039209;28;20224;-89
2023/03/20 06:58:11;;;;;;;3.07;2.73;;;8.60;99.90;;;;;;5081610;28;20221;-95
2023/03/20 07:00:38;;;;;;;8.17;4.63;;;8.60;99.90;;;;;;5059179;28;20209;-94
2023/03/20 07:03:04;;;;;;;7.60;4.63;;;8.70;99.90;;;;;;5058664;28;20247;-95
2023/03/20 07:05:31;;;;;;;7.63;5.10;;;8.70;99.90;;;;;;5058554;28;20213;-93
2023/03/20 07:07:57;;;;;;;5.03;4.40;;;8.80;99.90;;;;;;5059485;28;20222;-94
2023/03/20 07:10:23;;;;;;;7.03;3.90;;;8.80;99.90;;;;;;5056676;28;20273;-90
2023/03/20 07:12:49;;;;;;;10.13;4.10;;;8.80;99.90;;;;;;5055140;28;20215;-94
2023/03/20 07:15:16;;;;;;;5.03;2.43;;;8.80;99.90;;;;;;5056513;28;20217;-94
2023/03/20 07:17:42;;;;;;;9.87;3.93;;;8.80;99.90;;;;;;5040328;28;20330;-95
2023/03/20 07:20:09;;;;;;;14.40;6.00;;;8.90;99.90;;;;;;5056920;28;20178;-92
2023/03/20 07:22:35;;;;;;;5.43;4.90;;;8.90;99.90;;;;;;5056141;28;20733;-92
2023/03/20 07:25:01;;;;;;;7.10;3.47;;;8.90;99.90;;;;;;5053087;28;20214;-94
2023/03/20 07:27:27;;;;;;;7.23;5.27;;;8.80;99.90;;;;;;5053733;28;20945;-93
2023/03/20 07:29:52;;;;;;;5.93;4.87;;;8.90;99.90;;;;;;5056415;28;20302;-94
2023/03/20 07:32:19;;;;;;;6.27;4.17;;;8.90;99.90;;;;;;5056326;28;20678;-94
2023/03/20 07:34:46;;;;;;;5.80;4.47;;;8.80;99.90;;;;;;5059448;28;20252;-94
2023/03/20 07:37:12;;;;;;;6.33;3.87;;;8.90;99.90;;;;;;5059858;28;20224;-96
2023/03/20 07:39:38;;;;;;;6.57;4.43;;;8.90;99.90;;;;;;5047866;28;20556;-94
2023/03/20 07:42:04;;;;;;;10.17;5.60;;;8.90;99.90;;;;;;5062311;28;20262;-93
2023/03/20 07:44:30;;;;;;;3.63;3.23;;;9.00;99.90;;;;;;5061952;28;20244;-92
2023/03/20 07:46:56;;;;;;;5.50;4.50;;;9.00;99.90;;;;;;5057304;28;20659;-93
2023/03/20 07:49:22;;;;;;;7.27;3.83;;;9.00;99.90;;;;;;5040154;28;20287;-90
2023/03/20 07:51:49;;;;;;;8.90;3.53;;;9.10;99.90;;;;;;5053975;28;20220;-93
2023/03/20 07:54:16;;;;;;;2.73;2.47;;;9.20;99.90;;;;;;5053682;28;20210;-93
2023/03/20 07:56:42;;;;;;;2.87;2.30;;;9.10;99.90;;;;;;5056155;28;20633;-94
2023/03/20 07:59:08;;;;;;;6.03;4.67;;;9.20;99.90;;;;;;5057423;28;20189;-93
2023/03/20 08:01:34;;;;;;;5.73;4.70;;;9.10;99.90;;;;;;5054908;28;20304;-94
2023/03/20 08:04:00;;;;;;;5.57;3.00;;;9.10;99.90;;;;;;5056918;28;20228;-94
2023/03/20 08:06:26;;;;;;;6.00;3.70;;;9.10;99.90;;;;;;5055028;28;20209;-91
2023/03/20 08:08:52;;;;;;;7.33;3.70;;;9.10;99.90;;;;;;5036337;28;20259;-92
2023/03/20 08:11:18;;;;;;;10.87;3.27;;;9.10;99.90;;;;;;5057866;28;20272;-91
2023/03/20 08:13:45;;;;;;;4.50;3.50;;;9.30;99.90;;;;;;5050738;28;20205;-92
2023/03/20 08:16:11;;;;;;;7.80;4.70;;;9.30;99.90;;;;;;5043899;28;20344;-92
2023/03/20 08:18:36;;;;;;;7.57;3.87;;;9.30;99.90;;;;;;5061314;28;20213;-92
2023/03/20 08:21:02;;;;;;;4.50;3.10;;;9.30;99.90;;;;;;5044024;28;20581;-93
2023/03/20 08:23:29;;;;;;;6.93;3.77;;;9.40;99.90;;;;;;5059435;28;20189;-91
2023/03/20 08:25:55;;;;;;;5.23;4.40;;;9.60;99.90;;;;;;5056947;28;20675;-92
2023/03/20 08:28:21;;;;;;;3.87;2.90;;;9.70;99.90;;;;;;5055240;28;20250;-91
2023/03/20 08:30:48;;;;;;;2.17;1.93;;;9.70;99.90;;;;;;5043039;28;20247;-92
2023/03/20 08:33:15;;;;;;;5.37;3.43;;;9.70;99.90;;;;;;5049438;28;20222;-90
2023/03/20 08:35:42;;;;;;;4.80;3.20;;;9.80;99.90;;;;;;5058452;28;20181;-91
2023/03/20 08:38:12;;;;;;;5.93;3.70;;;9.80;99.90;;;;;;5041735;28;20201;-91
2023/03/20 08:40:40;;;;;;;4.07;3.67;;;9.90;99.90;;;;;;5058267;28;20682;-93
2023/03/20 08:43:07;;;;;;;4.70;4.30;;;9.90;99.90;;;;;;5058966;28;20233;-91
2023/03/20 08:45:32;;;;;;;7.33;3.37;;;9.80;99.90;;;;;;5057811;28;20251;-91
2023/03/20 08:47:58;;;;;;;2.50;1.67;;;9.90;99.90;;;;;;5025948;28;20228;-93
2023/03/20 08:50:24;;;;;;;5.47;3.80;;;9.90;99.90;;;;;;5033319;28;20657;-91
2023/03/20 08:52:50;;;;;;;3.33;3.03;;;10.00;99.90;;;;;;5059417;28;20663;-92
2023/03/20 08:55:16;;;;;;;4.17;3.43;;;10.00;99.90;;;;;;5058618;28;20682;-91
2023/03/20 08:57:42;;;;;;;3.97;3.53;;;10.20;99.90;;;;;;5041900;28;20275;-92
2023/03/20 09:00:12;;;;;;;5.60;3.63;;;10.40;99.90;;;;;;5041559;28;20205;-90
2023/03/20 09:02:38;;;;;;;10.37;2.97;;;10.60;99.90;;;;;;5083554;28;20217;-92
2023/03/20 09:05:04;;;;;;;5.10;2.77;;;10.70;99.90;;;;;;5057444;28;20212;-91
2023/03/20 09:07:30;;;;;;;7.57;3.10;;;10.70;99.90;;;;;;5040882;28;20296;-93
2023/03/20 09:09:56;;;;;;;3.60;2.13;;;10.70;99.90;;;;;;5060321;28;20226;-90
2023/03/20 09:12:22;;;;;;;3.47;2.10;;;10.70;99.90;;;;;;5043728;28;20209;-88
2023/03/20 09:14:47;;;;;;;6.43;2.50;;;10.70;99.90;;;;;;5058475;28;20217;-88
2023/03/20 09:17:13;;;;;;;3.00;2.70;;;10.70;99.90;;;;;;5041407;28;20201;-88
2023/03/20 09:19:42;;;;;;;13.23;3.90;;;10.60;99.90;;;;;;5047802;28;20296;-89
2023/03/20 09:22:14;;;;;;;3.83;2.77;;;10.90;99.90;;;;;;5038898;28;20605;-88
2023/03/20 09:24:39;;;;;;;5.00;3.57;;;11.10;99.90;;;;;;5054679;28;20213;-87
2023/03/20 09:27:06;;;;;;;2.30;1.70;;;11.40;99.90;;;;;;5045530;28;20877;-88
2023/03/20 09:29:31;;;;;;;4.13;3.17;;;11.50;99.90;;;;;;5054352;28;20206;-87
2023/03/20 09:31:57;;;;;;;8.83;3.00;;;11.40;99.90;;;;;;5064510;28;20289;-89
2023/03/20 09:34:23;;;;;;;4.73;2.33;;;11.30;99.90;;;;;;5037458;28;20253;-88
2023/03/20 09:36:49;;;;;;;4.20;2.27;;;11.20;99.90;;;;;;5041124;28;20233;-89
2023/03/20 09:39:15;;;;;;;5.03;2.93;;;11.10;99.90;;;;;;5056028;28;20303;-89
2023/03/20 09:41:47;;;;;;;4.23;3.23;;;11.10;99.90;;;;;;5054782;28;20659;-89
2023/03/20 09:44:31;;;;;;;3.70;2.67;;;10.90;99.90;;;;;;5063363;28;20197;-89
2023/03/20 09:47:17;;;;;;;8.97;2.97;;;10.90;99.90;;;;;;5053672;28;20206;-88
2023/03/20 09:50:06;;;;;;;2.70;2.50;;;10.70;99.90;;;;;;5055132;28;20237;-89
2023/03/20 09:52:52;;;;;;;2.97;2.17;;;10.70;99.90;;;;;;5061722;28;20623;-88
2023/03/20 09:55:22;;;;;;;9.83;2.93;;;10.70;99.90;;;;;;5052011;28;20559;-88
2023/03/20 09:57:58;;;;;;;11.07;2.93;;;10.80;99.90;;;;;;5054746;28;20209;-88
2023/03/20 10:00:27;;;;;;;5.90;4.20;;;10.80;99.90;;;;;;5055873;28;20751;-89
2023/03/20 10:03:07;;;;;;;7.77;4.10;;;10.90;99.90;;;;;;5055679;28;20210;-88
2023/03/20 10:06:19;;;;;;;10.00;2.77;;;10.90;99.90;;;;;;5058655;28;20260;-89
2023/03/20 10:08:45;;;;;;;4.10;3.27;;;10.90;99.90;;;;;;4967711;28;20250;-89
2023/03/20 10:11:38;;;;;;;7.37;2.10;;;11.00;99.90;;;;;;5040361;28;20679;-89
2023/03/20 10:14:20;;;;;;;6.07;2.60;;;10.80;99.90;;;;;;5056848;28;20233;-90
2023/03/20 10:17:14;;;;;;;2.20;1.00;;;10.70;99.90;;;;;;5058297;28;20213;-89
2023/03/20 10:19:49;;;;;;;8.77;3.70;;;10.60;99.90;;;;;;5062658;28;20221;-90
2023/03/20 10:22:35;;;;;;;6.77;2.47;;;10.60;99.90;;;;;;5052155;28;20247;-89
2023/03/20 10:25:15;;;;;;;4.07;2.53;;;10.50;99.90;;;;;;5056543;28;20232;-89
2023/03/20 10:27:55;;;;;;;5.93;2.10;;;10.50;99.90;;;;;;5057775;28;20213;-89
2023/03/20 10:30:50;;;;;;;3.23;2.43;;;10.50;99.90;;;;;;5053783;28;20584;-89
2023/03/20 10:33:41;;;;;;;12.97;2.37;;;10.50;99.90;;;;;;5026463;28;20274;-90
2023/03/20 10:36:12;;;;;;;3.67;2.13;;;10.60;99.90;;;;;;5055617;28;20213;-90
2023/03/20 10:38:44;;;;;;;2.37;1.67;;;10.50;99.90;;;;;;5057752;28;20201;-90
2023/03/20 10:41:27;;;;;;;4.20;2.57;;;10.50;99.90;;;;;;5054900;28;20624;-89
2023/03/20 10:43:56;;;;;;;12.33;2.67;;;10.50;99.90;;;;;;5053466;28;20703;-90
2023/03/20 10:46:40;;;;;;;2.33;2.17;;;10.50;99.90;;;;;;5056065;28;20979;-91
2023/03/20 10:49:17;;;;;;;5.53;2.93;;;10.50;99.90;;;;;;5061552;28;21024;-88
2023/03/20 10:51:57;;;;;;;4.00;2.13;;;10.50;99.90;;;;;;5055703;28;20201;-87
2023/03/20 10:54:41;;;;;;;4.97;1.93;;;10.60;99.90;;;;;;5054474;28;20216;-88
2023/03/20 10:57:25;;;;;;;2.23;1.83;;;10.70;99.90;;;;;;5057641;28;20220;-92
2023/03/20 10:59:53;;;;;;;1.90;1.80;;;10.60;99.90;;;;;;5055495;28;20266;-91
2023/03/20 11:02:22;;;;;;;9.60;2.67;;;10.50;99.90;;;;;;5056217;28;20510;-91
2023/03/20 11:04:49;;;;;;;10.07;2.50;;;10.30;99.90;;;;;;5059671;28;20205;-91
2023/03/20 11:07:31;;;;;;;5.17;2.97;;;10.20;99.90;;;;;;5065256;28;20225;-91
2023/03/20 11:10:09;;;;;;;5.60;3.50;;;10.30;99.90;;;;;;5065173;28;20547;-91
2023/03/20 11:12:41;;;;;;;6.20;3.80;;;10.40;99.90;;;;;;5055540;28;20300;-93
2023/03/20 11:15:23;;;;;;;5.23;4.73;;;10.50;99.90;;;;;;5054573;28;20217;-91
2023/03/20 11:17:58;;;;;;;1.70;1.60;;;10.30;99.90;;;;;;5059195;28;20182;-91
2023/03/20 11:20:46;;;;;;;6.40;1.67;;;10.20;99.90;;;;;;5054641;28;20204;-92
2023/03/20 11:23:18;;;;;;;2.33;1.63;;;10.10;99.90;;;;;;5055120;28;20267;-93
2023/03/20 11:26:04;;;;;;;3.80;3.07;;;10.10;99.90;;;;;;5056250;28;20221;-92
2023/03/20 11:28:39;;;;;;;5.03;4.23;;;10.10;99.90;;;;;;5054866;28;20221;-93
2023/03/20 11:31:25;;;;;;;4.17;2.07;;;10.10;99.90;;;;;;5061406;28;20217;-92
2023/03/20 11:34:06;;;;;;;2.73;2.40;;;10.20;99.90;;;;;;5063398;28;20241;-93
2023/03/20 11:36:34;;;;;;;3.37;2.53;;;10.00;99.90;;;;;;5057116;28;20651;-93
2023/03/20 11:39:13;;;;;;;1.53;1.43;;;10.20;99.90;;;;;;5054645;28;20217;-92
2023/03/20 11:41:44;;;;;;;4.83;2.07;;;10.30;99.90;;;;;;5055624;28;20594;-93
2023/03/20 11:44:32;;;;;;;2.73;2.43;;;10.20;99.90;;;;;;5056873;28;20196;-91
2023/03/20 11:47:02;;;;;;;9.13;3.03;;;10.20;99.90;;;;;;5058534;28;20218;-92
2023/03/20 11:49:29;;;;;;;4.90;2.77;;;10.20;99.90;;;;;;5060336;28;20233;-93
2023/03/20 11:52:11;;;;;;;7.80;5.03;;;10.20;99.90;;;;;;5060444;28;20221;-91
2023/03/20 11:54:45;;;;;;;8.50;4.27;;;10.20;99.90;;;;;;5060103;28;20221;-92
2023/03/20 11:57:33;;;;;;;6.47;3.60;;;10.20;99.90;;;;;;5079177;28;20553;-90
2023/03/20 12:00:23;;;;;;;6.57;5.50;;;10.30;99.90;;;;;;5055517;28;20714;-92
2023/03/20 12:02:49;;;;;;;2.17;1.97;;;10.20;99.90;;;;;;5056222;28;20227;-92
2023/03/20 12:05:34;;;;;;;1.57;1.33;;;10.10;99.90;;;;;;5057181;28;20189;-92
2023/03/20 12:08:05;;;;;;;2.53;2.33;;;10.00;99.90;;;;;;5063017;28;20630;-93
2023/03/20 12:10:40;;;;;;;6.47;1.80;;;10.00;99.90;;;;;;5055402;28;20222;-92
2023/03/20 12:13:17;;;;;;;2.67;2.47;;;10.10;99.90;;;;;;5057111;28;20850;-92
2023/03/20 12:15:53;;;;;;;2.70;1.83;;;10.20;99.90;;;;;;5063460;28;20217;-91
2023/03/20 12:18:31;;;;;;;3.17;2.87;;;10.10;99.90;;;;;;5057196;28;20296;-91
2023/03/20 12:21:21;;;;;;;2.97;1.90;;;10.20;99.90;;;;;;5062436;28;20675;-91
2023/03/20 12:24:18;;;;;;;1.23;1.23;;;10.20;99.90;;;;;;5053458;28;20194;-92
2023/03/20 12:27:02;;;;;;;1.33;1.03;;;10.00;99.90;;;;;;5056101;28;20189;-92
2023/03/20 12:29:37;;;;;;;0.70;0.70;;;10.00;99.90;;;;;;5056721;28;20209;-91
2023/03/20 12:32:17;;;;;;;3.23;1.83;;;10.10;99.90;;;;;;5067111;28;20244;-90
2023/03/20 12:34:56;;;;;;;5.20;4.73;;;10.10;99.90;;;;;;5060875;28;20232;-90
2023/03/20 12:37:22;;;;;;;1.10;1.00;;;10.10;99.90;;;;;;5054701;28;20217;-92
2023/03/20 12:39:54;;;;;;;2.63;2.30;;;10.00;99.90;;;;;;5039749;28;20460;-92
2023/03/20 12:42:29;;;;;;;2.93;2.27;;;9.90;99.90;;;;;;5057042;28;20325;-92
2023/03/20 12:44:59;;;;;;;2.40;2.20;;;10.00;99.90;;;;;;5056570;28;20277;-92
2023/03/20 12:47:39;;;;;;;2.30;2.10;;;10.10;99.90;;;;;;5067738;28;20190;-93
2023/03/20 12:50:26;;;;;;;2.13;2.03;;;10.20;99.90;;;;;;5073930;28;20271;-92
2023/03/20 12:52:57;;;;;;;1.80;1.40;;;10.20;99.90;;;;;;5067197;28;20236;-91
2023/03/20 12:55:38;;;;;;;1.93;1.83;;;10.10;99.90;;;;;;5066473;28;20632;-92
2023/03/20 12:58:13;;;;;;;3.20;2.43;;;10.00;99.90;;;;;;5066493;28;20229;-92
2023/03/20 13:01:16;;;;;;;2.30;1.60;;;10.00;99.90;;;;;;5072655;28;20231;-90
2023/03/20 13:03:45;;;;;;;1.60;1.40;;;10.00;99.90;;;;;;5080438;28;20213;-93
2023/03/20 13:06:44;;;;;;;1.23;1.03;;;10.10;99.90;;;;;;5079029;28;20222;-90
2023/03/20 13:09:46;;;;;;;1.03;0.90;;;10.00;99.90;;;;;;5074402;28;20264;-90
2023/03/20 13:12:19;;;;;;;1.83;1.53;;;10.10;99.90;;;;;;5075322;28;20220;-89
2023/03/20 13:15:09;;;;;;;4.27;3.23;;;10.20;99.90;;;;;;5073037;28;20178;-90
2023/03/20 13:17:46;;;;;;;2.90;1.87;;;10.20;99.90;;;;;;5083957;28;20212;-93